sensor_id;sensor_type;location;lat;lon;timestamp;P1;durP1;ratioP1;P2;durP2;ratioP2
43793;SDS011;29414;44.798;20.366;2022-11-15T00:03:58;29.80;;;24.93;;
43793;SDS011;29414;44.798;20.366;2022-11-15T00:07:58;27.23;;;22.53;;
43793;SDS011;29414;44.798;20.366;2022-11-15T00:11:59;27.23;;;21.73;;
43793;SDS011;29414;44.798;20.366;2022-11-15T00:16:00;28.33;;;21.30;;
43793;SDS011;29414;44.798;20.366;2022-11-15T00:20:00;23.47;;;19.80;;
43793;SDS011;29414;44.798;20.366;2022-11-15T00:24:00;24.37;;;19.90;;
43793;SDS011;29414;44.798;20.366;2022-11-15T00:28:01;27.27;;;20.63;;
43793;SDS011;29414;44.798;20.366;2022-11-15T00:32:01;25.77;;;20.83;;
43793;SDS011;29414;44.798;20.366;2022-11-15T00:36:06;26.07;;;20.57;;
43793;SDS011;29414;44.798;20.366;2022-11-15T00:40:07;25.43;;;19.80;;
43793;SDS011;29414;44.798;20.366;2022-11-15T00:44:07;25.33;;;20.80;;
43793;SDS011;29414;44.798;20.366;2022-11-15T00:48:08;29.43;;;22.23;;
43793;SDS011;29414;44.798;20.366;2022-11-15T00:52:09;24.87;;;20.53;;
43793;SDS011;29414;44.798;20.366;2022-11-15T00:56:09;23.17;;;20.57;;
43793;SDS011;29414;44.798;20.366;2022-11-15T01:00:10;23.80;;;20.67;;
43793;SDS011;29414;44.798;20.366;2022-11-15T01:04:11;23.30;;;19.13;;
43793;SDS011;29414;44.798;20.366;2022-11-15T01:08:12;27.07;;;21.07;;
43793;SDS011;29414;44.798;20.366;2022-11-15T01:12:12;64.70;;;51.23;;
43793;SDS011;29414;44.798;20.366;2022-11-15T01:16:14;80.07;;;62.67;;
43793;SDS011;29414;44.798;20.366;2022-11-15T01:20:14;80.47;;;59.53;;
43793;SDS011;29414;44.798;20.366;2022-11-15T01:24:18;108.77;;;78.00;;
43793;SDS011;29414;44.798;20.366;2022-11-15T01:28:19;130.77;;;78.47;;
43793;SDS011;29414;44.798;20.366;2022-11-15T01:32:19;97.40;;;72.67;;
43793;SDS011;29414;44.798;20.366;2022-11-15T01:36:20;105.60;;;76.07;;
43793;SDS011;29414;44.798;20.366;2022-11-15T01:40:21;361.33;;;93.67;;
43793;SDS011;29414;44.798;20.366;2022-11-15T01:52:28;112.07;;;72.23;;
43793;SDS011;29414;44.798;20.366;2022-11-15T01:56:33;108.10;;;76.10;;
43793;SDS011;29414;44.798;20.366;2022-11-15T02:00:36;103.30;;;74.83;;
43793;SDS011;29414;44.798;20.366;2022-11-15T02:04:40;116.20;;;78.80;;
43793;SDS011;29414;44.798;20.366;2022-11-15T02:08:41;100.63;;;71.63;;
43793;SDS011;29414;44.798;20.366;2022-11-15T02:12:42;95.90;;;68.30;;
43793;SDS011;29414;44.798;20.366;2022-11-15T02:21:05;97.30;;;66.60;;
43793;SDS011;29414;44.798;20.366;2022-11-15T02:29:14;100.30;;;63.75;;
43793;SDS011;29414;44.798;20.366;2022-11-15T02:41:56;98.90;;;63.70;;
43793;SDS011;29414;44.798;20.366;2022-11-15T02:46:40;92.93;;;63.27;;
43793;SDS011;29414;44.798;20.366;2022-11-15T02:50:21;80.23;;;59.50;;
43793;SDS011;29414;44.798;20.366;2022-11-15T02:54:24;93.43;;;59.47;;
43793;SDS011;29414;44.798;20.366;2022-11-15T03:15:20;91.80;;;52.63;;
43793;SDS011;29414;44.798;20.366;2022-11-15T03:23:24;60.83;;;46.33;;
43793;SDS011;29414;44.798;20.366;2022-11-15T03:27:27;59.37;;;44.07;;
43793;SDS011;29414;44.798;20.366;2022-11-15T03:31:29;121.13;;;47.37;;
43793;SDS011;29414;44.798;20.366;2022-11-15T03:35:47;49.40;;;40.67;;
43793;SDS011;29414;44.798;20.366;2022-11-15T03:39:48;59.57;;;41.17;;
43793;SDS011;29414;44.798;20.366;2022-11-15T03:43:52;113.50;;;45.70;;
43793;SDS011;29414;44.798;20.366;2022-11-15T03:48:01;50.27;;;39.67;;
43793;SDS011;29414;44.798;20.366;2022-11-15T03:52:03;52.93;;;40.23;;
43793;SDS011;29414;44.798;20.366;2022-11-15T03:56:04;53.00;;;41.47;;
43793;SDS011;29414;44.798;20.366;2022-11-15T04:00:04;48.60;;;39.00;;
43793;SDS011;29414;44.798;20.366;2022-11-15T04:04:05;63.23;;;41.13;;
43793;SDS011;29414;44.798;20.366;2022-11-15T04:08:05;65.10;;;41.63;;
43793;SDS011;29414;44.798;20.366;2022-11-15T04:12:05;54.53;;;42.53;;
43793;SDS011;29414;44.798;20.366;2022-11-15T04:16:06;51.63;;;39.40;;
43793;SDS011;29414;44.798;20.366;2022-11-15T04:20:10;50.43;;;39.27;;
43793;SDS011;29414;44.798;20.366;2022-11-15T04:24:29;47.80;;;39.63;;
43793;SDS011;29414;44.798;20.366;2022-11-15T04:28:29;50.10;;;39.70;;
43793;SDS011;29414;44.798;20.366;2022-11-15T04:32:30;50.30;;;38.43;;
43793;SDS011;29414;44.798;20.366;2022-11-15T04:36:30;108.40;;;48.17;;
43793;SDS011;29414;44.798;20.366;2022-11-15T04:40:49;75.60;;;52.50;;
43793;SDS011;29414;44.798;20.366;2022-11-15T04:44:49;57.40;;;45.47;;
43793;SDS011;29414;44.798;20.366;2022-11-15T04:48:50;52.47;;;42.97;;
43793;SDS011;29414;44.798;20.366;2022-11-15T04:52:51;53.47;;;44.00;;
43793;SDS011;29414;44.798;20.366;2022-11-15T04:56:52;54.63;;;45.27;;
43793;SDS011;29414;44.798;20.366;2022-11-15T05:00:52;59.03;;;45.87;;
43793;SDS011;29414;44.798;20.366;2022-11-15T05:04:52;56.80;;;46.90;;
43793;SDS011;29414;44.798;20.366;2022-11-15T05:08:53;58.63;;;46.03;;
43793;SDS011;29414;44.798;20.366;2022-11-15T05:12:53;50.87;;;41.47;;
43793;SDS011;29414;44.798;20.366;2022-11-15T05:16:53;53.73;;;44.43;;
43793;SDS011;29414;44.798;20.366;2022-11-15T05:20:54;57.27;;;47.03;;
43793;SDS011;29414;44.798;20.366;2022-11-15T05:24:54;52.90;;;43.70;;
43793;SDS011;29414;44.798;20.366;2022-11-15T05:28:55;130.17;;;93.17;;
43793;SDS011;29414;44.798;20.366;2022-11-15T05:32:55;93.43;;;73.03;;
43793;SDS011;29414;44.798;20.366;2022-11-15T05:36:55;101.67;;;75.63;;
43793;SDS011;29414;44.798;20.366;2022-11-15T05:40:56;106.10;;;82.90;;
43793;SDS011;29414;44.798;20.366;2022-11-15T05:44:59;97.83;;;75.00;;
43793;SDS011;29414;44.798;20.366;2022-11-15T05:49:01;66.87;;;52.93;;
43793;SDS011;29414;44.798;20.366;2022-11-15T05:53:02;54.87;;;44.17;;
43793;SDS011;29414;44.798;20.366;2022-11-15T05:57:05;56.33;;;43.03;;
43793;SDS011;29414;44.798;20.366;2022-11-15T06:01:06;50.47;;;39.57;;
43793;SDS011;29414;44.798;20.366;2022-11-15T06:05:06;42.70;;;34.93;;
43793;SDS011;29414;44.798;20.366;2022-11-15T06:09:06;45.17;;;36.03;;
43793;SDS011;29414;44.798;20.366;2022-11-15T06:13:07;51.80;;;41.17;;
43793;SDS011;29414;44.798;20.366;2022-11-15T06:17:07;45.73;;;36.17;;
43793;SDS011;29414;44.798;20.366;2022-11-15T06:21:07;52.10;;;39.83;;
43793;SDS011;29414;44.798;20.366;2022-11-15T06:25:08;57.03;;;45.73;;
43793;SDS011;29414;44.798;20.366;2022-11-15T06:29:08;56.73;;;44.30;;
43793;SDS011;29414;44.798;20.366;2022-11-15T06:33:08;63.50;;;48.27;;
43793;SDS011;29414;44.798;20.366;2022-11-15T06:37:08;60.03;;;46.17;;
43793;SDS011;29414;44.798;20.366;2022-11-15T06:41:09;57.97;;;48.87;;
43793;SDS011;29414;44.798;20.366;2022-11-15T06:45:10;65.70;;;43.97;;
43793;SDS011;29414;44.798;20.366;2022-11-15T06:49:10;57.17;;;42.63;;
43793;SDS011;29414;44.798;20.366;2022-11-15T06:53:10;57.53;;;44.33;;
43793;SDS011;29414;44.798;20.366;2022-11-15T06:57:11;53.20;;;40.00;;
43793;SDS011;29414;44.798;20.366;2022-11-15T07:01:11;52.33;;;37.97;;
43793;SDS011;29414;44.798;20.366;2022-11-15T07:05:12;50.70;;;38.67;;
43793;SDS011;29414;44.798;20.366;2022-11-15T07:09:12;54.97;;;40.80;;
43793;SDS011;29414;44.798;20.366;2022-11-15T07:13:12;59.70;;;46.30;;
43793;SDS011;29414;44.798;20.366;2022-11-15T07:17:12;54.43;;;42.27;;
43793;SDS011;29414;44.798;20.366;2022-11-15T07:21:13;52.30;;;41.33;;
43793;SDS011;29414;44.798;20.366;2022-11-15T07:25:13;48.53;;;38.03;;
43793;SDS011;29414;44.798;20.366;2022-11-15T07:29:13;43.60;;;33.97;;
43793;SDS011;29414;44.798;20.366;2022-11-15T07:33:14;54.33;;;41.53;;
43793;SDS011;29414;44.798;20.366;2022-11-15T07:37:14;54.80;;;41.97;;
43793;SDS011;29414;44.798;20.366;2022-11-15T07:41:14;51.17;;;42.23;;
43793;SDS011;29414;44.798;20.366;2022-11-15T07:45:14;46.70;;;39.17;;
43793;SDS011;29414;44.798;20.366;2022-11-15T07:49:15;50.30;;;37.73;;
43793;SDS011;29414;44.798;20.366;2022-11-15T07:53:15;53.13;;;40.22;;
43793;SDS011;29414;44.798;20.366;2022-11-15T07:57:15;39.93;;;32.30;;
43793;SDS011;29414;44.798;20.366;2022-11-15T08:01:15;33.92;;;26.65;;
43793;SDS011;29414;44.798;20.366;2022-11-15T08:05:15;38.10;;;28.40;;
43793;SDS011;29414;44.798;20.366;2022-11-15T08:09:16;29.22;;;23.58;;
43793;SDS011;29414;44.798;20.366;2022-11-15T08:13:16;29.63;;;23.85;;
43793;SDS011;29414;44.798;20.366;2022-11-15T08:17:16;29.20;;;23.83;;
43793;SDS011;29414;44.798;20.366;2022-11-15T08:21:18;28.97;;;23.07;;
43793;SDS011;29414;44.798;20.366;2022-11-15T08:25:18;28.33;;;23.20;;
43793;SDS011;29414;44.798;20.366;2022-11-15T08:29:19;25.43;;;22.17;;
43793;SDS011;29414;44.798;20.366;2022-11-15T08:33:19;28.93;;;22.00;;
43793;SDS011;29414;44.798;20.366;2022-11-15T08:37:19;27.50;;;23.17;;
43793;SDS011;29414;44.798;20.366;2022-11-15T08:41:28;25.10;;;21.43;;
43793;SDS011;29414;44.798;20.366;2022-11-15T08:45:30;25.07;;;21.10;;
43793;SDS011;29414;44.798;20.366;2022-11-15T08:49:30;28.07;;;20.57;;
43793;SDS011;29414;44.798;20.366;2022-11-15T08:53:30;26.20;;;22.08;;
43793;SDS011;29414;44.798;20.366;2022-11-15T08:57:31;28.13;;;20.83;;
43793;SDS011;29414;44.798;20.366;2022-11-15T09:01:31;25.03;;;20.73;;
43793;SDS011;29414;44.798;20.366;2022-11-15T09:05:32;29.73;;;22.60;;
43793;SDS011;29414;44.798;20.366;2022-11-15T09:09:33;28.27;;;24.27;;
43793;SDS011;29414;44.798;20.366;2022-11-15T09:13:33;27.03;;;22.63;;
43793;SDS011;29414;44.798;20.366;2022-11-15T09:17:33;25.20;;;21.73;;
43793;SDS011;29414;44.798;20.366;2022-11-15T09:21:34;28.45;;;21.90;;
43793;SDS011;29414;44.798;20.366;2022-11-15T09:25:34;27.58;;;22.88;;
43793;SDS011;29414;44.798;20.366;2022-11-15T09:29:34;30.10;;;23.43;;
43793;SDS011;29414;44.798;20.366;2022-11-15T09:33:34;29.77;;;21.45;;
43793;SDS011;29414;44.798;20.366;2022-11-15T09:37:35;35.17;;;24.30;;
43793;SDS011;29414;44.798;20.366;2022-11-15T09:41:48;34.97;;;28.50;;
43793;SDS011;29414;44.798;20.366;2022-11-15T09:46:06;36.23;;;28.37;;
43793;SDS011;29414;44.798;20.366;2022-11-15T09:50:11;37.33;;;30.27;;
43793;SDS011;29414;44.798;20.366;2022-11-15T10:06:25;30.45;;;26.40;;
43793;SDS011;29414;44.798;20.366;2022-11-15T10:14:29;42.20;;;31.20;;
43793;SDS011;29414;44.798;20.366;2022-11-15T10:18:33;36.63;;;30.40;;
43793;SDS011;29414;44.798;20.366;2022-11-15T10:22:43;51.50;;;32.05;;
43793;SDS011;29414;44.798;20.366;2022-11-15T10:26:47;35.42;;;28.95;;
43793;SDS011;29414;44.798;20.366;2022-11-15T10:30:49;36.53;;;29.95;;
43793;SDS011;29414;44.798;20.366;2022-11-15T10:34:49;32.83;;;28.42;;
43793;SDS011;29414;44.798;20.366;2022-11-15T10:43:05;40.35;;;30.95;;
43793;SDS011;29414;44.798;20.366;2022-11-15T10:47:06;38.50;;;30.63;;
43793;SDS011;29414;44.798;20.366;2022-11-15T10:51:20;37.20;;;27.38;;
43793;SDS011;29414;44.798;20.366;2022-11-15T10:55:29;35.42;;;27.92;;
43793;SDS011;29414;44.798;20.366;2022-11-15T10:59:31;30.30;;;26.42;;
43793;SDS011;29414;44.798;20.366;2022-11-15T11:03:36;37.45;;;31.20;;
43793;SDS011;29414;44.798;20.366;2022-11-15T11:07:39;45.08;;;32.00;;
43793;SDS011;29414;44.798;20.366;2022-11-15T11:11:44;58.97;;;35.03;;
43793;SDS011;29414;44.798;20.366;2022-11-15T11:15:45;51.03;;;36.58;;
43793;SDS011;29414;44.798;20.366;2022-11-15T11:23:59;43.15;;;33.92;;
43793;SDS011;29414;44.798;20.366;2022-11-15T11:32:19;46.18;;;31.88;;
43793;SDS011;29414;44.798;20.366;2022-11-15T11:40:59;35.92;;;31.05;;
43793;SDS011;29414;44.798;20.366;2022-11-15T11:49:10;38.58;;;29.70;;
43793;SDS011;29414;44.798;20.366;2022-11-15T11:53:14;36.17;;;28.50;;
43793;SDS011;29414;44.798;20.366;2022-11-15T11:57:33;38.00;;;28.88;;
43793;SDS011;29414;44.798;20.366;2022-11-15T12:01:36;38.67;;;29.02;;
43793;SDS011;29414;44.798;20.366;2022-11-15T12:05:41;32.00;;;27.55;;
43793;SDS011;29414;44.798;20.366;2022-11-15T12:13:43;41.08;;;29.00;;
43793;SDS011;29414;44.798;20.366;2022-11-15T12:17:44;43.20;;;31.10;;
43793;SDS011;29414;44.798;20.366;2022-11-15T12:29:56;35.67;;;27.92;;
43793;SDS011;29414;44.798;20.366;2022-11-15T12:33:58;43.95;;;29.92;;
43793;SDS011;29414;44.798;20.366;2022-11-15T12:37:58;40.15;;;28.05;;
43793;SDS011;29414;44.798;20.366;2022-11-15T12:46:01;41.48;;;27.20;;
43793;SDS011;29414;44.798;20.366;2022-11-15T12:50:03;44.40;;;28.58;;
43793;SDS011;29414;44.798;20.366;2022-11-15T12:54:28;40.63;;;30.30;;
43793;SDS011;29414;44.798;20.366;2022-11-15T12:58:28;39.58;;;28.35;;
43793;SDS011;29414;44.798;20.366;2022-11-15T13:02:39;32.97;;;24.92;;
43793;SDS011;29414;44.798;20.366;2022-11-15T13:06:44;32.42;;;24.13;;
43793;SDS011;29414;44.798;20.366;2022-11-15T13:10:44;26.85;;;21.58;;
43793;SDS011;29414;44.798;20.366;2022-11-15T13:19:04;42.83;;;25.10;;
43793;SDS011;29414;44.798;20.366;2022-11-15T13:27:14;26.74;;;22.00;;
43793;SDS011;29414;44.798;20.366;2022-11-15T13:31:58;29.08;;;24.20;;
43793;SDS011;29414;44.798;20.366;2022-11-15T13:35:39;35.28;;;23.30;;
43793;SDS011;29414;44.798;20.366;2022-11-15T13:39:40;28.52;;;21.90;;
43793;SDS011;29414;44.798;20.366;2022-11-15T13:43:40;31.17;;;23.75;;
43793;SDS011;29414;44.798;20.366;2022-11-15T13:47:40;30.65;;;24.65;;
43793;SDS011;29414;44.798;20.366;2022-11-15T13:51:48;26.75;;;23.00;;
43793;SDS011;29414;44.798;20.366;2022-11-15T13:55:50;27.02;;;23.10;;
43793;SDS011;29414;44.798;20.366;2022-11-15T13:59:52;30.70;;;22.83;;
43793;SDS011;29414;44.798;20.366;2022-11-15T14:03:54;27.27;;;22.13;;
43793;SDS011;29414;44.798;20.366;2022-11-15T14:08:37;30.08;;;23.92;;
43793;SDS011;29414;44.798;20.366;2022-11-15T14:12:26;24.38;;;21.77;;
43793;SDS011;29414;44.798;20.366;2022-11-15T14:16:32;30.27;;;23.30;;
43793;SDS011;29414;44.798;20.366;2022-11-15T14:24:34;38.92;;;24.65;;
43793;SDS011;29414;44.798;20.366;2022-11-15T14:28:34;76.32;;;28.10;;
43793;SDS011;29414;44.798;20.366;2022-11-15T14:32:44;35.40;;;24.73;;
43793;SDS011;29414;44.798;20.366;2022-11-15T14:36:45;40.15;;;27.10;;
43793;SDS011;29414;44.798;20.366;2022-11-15T14:40:45;40.78;;;26.45;;
43793;SDS011;29414;44.798;20.366;2022-11-15T14:44:45;44.20;;;26.55;;
43793;SDS011;29414;44.798;20.366;2022-11-15T14:48:46;39.65;;;27.23;;
43793;SDS011;29414;44.798;20.366;2022-11-15T14:52:46;40.05;;;26.98;;
43793;SDS011;29414;44.798;20.366;2022-11-15T14:56:47;39.97;;;27.83;;
43793;SDS011;29414;44.798;20.366;2022-11-15T15:00:47;40.58;;;27.25;;
43793;SDS011;29414;44.798;20.366;2022-11-15T15:04:47;42.67;;;27.20;;
43793;SDS011;29414;44.798;20.366;2022-11-15T15:08:48;43.83;;;30.55;;
43793;SDS011;29414;44.798;20.366;2022-11-15T15:12:50;48.35;;;29.90;;
43793;SDS011;29414;44.798;20.366;2022-11-15T15:16:50;40.83;;;26.30;;
43793;SDS011;29414;44.798;20.366;2022-11-15T15:20:55;61.58;;;29.45;;
43793;SDS011;29414;44.798;20.366;2022-11-15T15:24:56;40.83;;;27.23;;
43793;SDS011;29414;44.798;20.366;2022-11-15T15:28:56;54.88;;;27.65;;
43793;SDS011;29414;44.798;20.366;2022-11-15T15:32:57;45.50;;;26.72;;
43793;SDS011;29414;44.798;20.366;2022-11-15T15:41:26;38.45;;;26.10;;
43793;SDS011;29414;44.798;20.366;2022-11-15T15:45:27;55.70;;;24.98;;
43793;SDS011;29414;44.798;20.366;2022-11-15T15:49:27;43.72;;;25.75;;
43793;SDS011;29414;44.798;20.366;2022-11-15T15:53:28;46.80;;;28.54;;
43793;SDS011;29414;44.798;20.366;2022-11-15T15:57:28;50.67;;;32.60;;
43793;SDS011;29414;44.798;20.366;2022-11-15T16:01:29;68.90;;;48.42;;
43793;SDS011;29414;44.798;20.366;2022-11-15T16:05:29;78.18;;;43.42;;
43793;SDS011;29414;44.798;20.366;2022-11-15T16:09:29;55.47;;;36.03;;
43793;SDS011;29414;44.798;20.366;2022-11-15T16:13:48;53.67;;;34.40;;
43793;SDS011;29414;44.798;20.366;2022-11-15T16:17:55;53.57;;;36.47;;
43793;SDS011;29414;44.798;20.366;2022-11-15T16:21:56;61.17;;;38.43;;
43793;SDS011;29414;44.798;20.366;2022-11-15T16:25:56;50.90;;;35.53;;
43793;SDS011;29414;44.798;20.366;2022-11-15T16:29:56;53.80;;;36.87;;
43793;SDS011;29414;44.798;20.366;2022-11-15T16:33:57;54.33;;;35.73;;
43793;SDS011;29414;44.798;20.366;2022-11-15T16:37:57;54.54;;;38.24;;
43793;SDS011;29414;44.798;20.366;2022-11-15T16:41:57;70.23;;;40.47;;
43793;SDS011;29414;44.798;20.366;2022-11-15T16:45:58;63.37;;;43.07;;
43793;SDS011;29414;44.798;20.366;2022-11-15T16:50:03;79.82;;;55.42;;
43793;SDS011;29414;44.798;20.366;2022-11-15T16:54:04;67.37;;;47.43;;
43793;SDS011;29414;44.798;20.366;2022-11-15T16:58:04;69.60;;;42.57;;
43793;SDS011;29414;44.798;20.366;2022-11-15T17:02:09;76.93;;;44.97;;
43793;SDS011;29414;44.798;20.366;2022-11-15T17:06:11;60.55;;;44.60;;
43793;SDS011;29414;44.798;20.366;2022-11-15T17:10:12;74.73;;;50.57;;
43793;SDS011;29414;44.798;20.366;2022-11-15T17:14:12;71.53;;;51.00;;
43793;SDS011;29414;44.798;20.366;2022-11-15T17:18:12;76.50;;;54.27;;
43793;SDS011;29414;44.798;20.366;2022-11-15T17:22:14;71.57;;;49.03;;
43793;SDS011;29414;44.798;20.366;2022-11-15T17:26:15;66.07;;;46.47;;
43793;SDS011;29414;44.798;20.366;2022-11-15T17:30:17;83.37;;;55.67;;
43793;SDS011;29414;44.798;20.366;2022-11-15T17:34:19;84.87;;;60.00;;
43793;SDS011;29414;44.798;20.366;2022-11-15T17:38:19;109.40;;;75.57;;
43793;SDS011;29414;44.798;20.366;2022-11-15T17:42:19;86.23;;;59.17;;
43793;SDS011;29414;44.798;20.366;2022-11-15T17:46:20;104.70;;;67.20;;
43793;SDS011;29414;44.798;20.366;2022-11-15T17:50:20;98.30;;;71.17;;
43793;SDS011;29414;44.798;20.366;2022-11-15T17:54:20;107.38;;;79.10;;
43793;SDS011;29414;44.798;20.366;2022-11-15T17:58:20;101.90;;;71.17;;
43793;SDS011;29414;44.798;20.366;2022-11-15T18:02:21;100.50;;;72.57;;
43793;SDS011;29414;44.798;20.366;2022-11-15T18:06:22;106.10;;;76.30;;
43793;SDS011;29414;44.798;20.366;2022-11-15T18:10:22;107.80;;;73.53;;
43793;SDS011;29414;44.798;20.366;2022-11-15T18:14:22;103.80;;;70.10;;
43793;SDS011;29414;44.798;20.366;2022-11-15T18:18:25;108.80;;;79.10;;
43793;SDS011;29414;44.798;20.366;2022-11-15T18:22:25;113.17;;;82.80;;
43793;SDS011;29414;44.798;20.366;2022-11-15T18:26:26;119.93;;;84.93;;
43793;SDS011;29414;44.798;20.366;2022-11-15T18:30:27;135.97;;;94.43;;
43793;SDS011;29414;44.798;20.366;2022-11-15T18:34:27;122.73;;;87.97;;
43793;SDS011;29414;44.798;20.366;2022-11-15T18:38:30;128.90;;;86.37;;
43793;SDS011;29414;44.798;20.366;2022-11-15T18:42:31;142.20;;;97.87;;
43793;SDS011;29414;44.798;20.366;2022-11-15T18:46:32;125.10;;;89.87;;
43793;SDS011;29414;44.798;20.366;2022-11-15T18:50:32;156.27;;;103.10;;
43793;SDS011;29414;44.798;20.366;2022-11-15T18:54:32;169.10;;;105.73;;
43793;SDS011;29414;44.798;20.366;2022-11-15T18:58:34;205.20;;;111.13;;
43793;SDS011;29414;44.798;20.366;2022-11-15T19:02:34;161.20;;;102.63;;
43793;SDS011;29414;44.798;20.366;2022-11-15T19:06:38;151.30;;;97.02;;
43793;SDS011;29414;44.798;20.366;2022-11-15T19:10:39;376.47;;;100.93;;
43793;SDS011;29414;44.798;20.366;2022-11-15T19:14:39;324.50;;;107.20;;
43793;SDS011;29414;44.798;20.366;2022-11-15T19:18:39;588.67;;;110.93;;
43793;SDS011;29414;44.798;20.366;2022-11-15T19:22:40;623.10;;;126.13;;
43793;SDS011;29414;44.798;20.366;2022-11-15T19:26:41;367.83;;;118.00;;
43793;SDS011;29414;44.798;20.366;2022-11-15T19:30:41;259.67;;;106.83;;
43793;SDS011;29414;44.798;20.366;2022-11-15T19:34:42;220.40;;;102.97;;
43793;SDS011;29414;44.798;20.366;2022-11-15T19:38:42;515.57;;;116.93;;
43793;SDS011;29414;44.798;20.366;2022-11-15T19:42:42;279.67;;;107.03;;
43793;SDS011;29414;44.798;20.366;2022-11-15T19:46:43;231.47;;;103.97;;
43793;SDS011;29414;44.798;20.366;2022-11-15T19:50:43;378.40;;;112.03;;
43793;SDS011;29414;44.798;20.366;2022-11-15T19:54:43;191.43;;;103.07;;
43793;SDS011;29414;44.798;20.366;2022-11-15T19:58:44;165.20;;;95.50;;
43793;SDS011;29414;44.798;20.366;2022-11-15T20:02:44;185.37;;;98.33;;
43793;SDS011;29414;44.798;20.366;2022-11-15T20:06:44;370.40;;;109.20;;
43793;SDS011;29414;44.798;20.366;2022-11-15T20:10:45;894.67;;;156.77;;
43793;SDS011;29414;44.798;20.366;2022-11-15T20:14:46;513.27;;;120.97;;
43793;SDS011;29414;44.798;20.366;2022-11-15T20:18:47;311.37;;;111.33;;
43793;SDS011;29414;44.798;20.366;2022-11-15T20:22:48;686.13;;;137.33;;
43793;SDS011;29414;44.798;20.366;2022-11-15T20:26:48;469.60;;;118.80;;
43793;SDS011;29414;44.798;20.366;2022-11-15T20:30:53;252.23;;;114.47;;
43793;SDS011;29414;44.798;20.366;2022-11-15T20:34:53;203.83;;;107.97;;
43793;SDS011;29414;44.798;20.366;2022-11-15T20:38:57;183.03;;;100.40;;
43793;SDS011;29414;44.798;20.366;2022-11-15T20:42:58;150.20;;;94.53;;
43793;SDS011;29414;44.798;20.366;2022-11-15T20:46:58;147.10;;;91.47;;
43793;SDS011;29414;44.798;20.366;2022-11-15T20:51:02;141.23;;;91.70;;
43793;SDS011;29414;44.798;20.366;2022-11-15T20:55:03;146.70;;;92.47;;
43793;SDS011;29414;44.798;20.366;2022-11-15T20:59:03;134.93;;;88.87;;
43793;SDS011;29414;44.798;20.366;2022-11-15T21:03:04;123.03;;;84.63;;
43793;SDS011;29414;44.798;20.366;2022-11-15T21:07:07;128.73;;;84.03;;
43793;SDS011;29414;44.798;20.366;2022-11-15T21:11:07;118.53;;;83.77;;
43793;SDS011;29414;44.798;20.366;2022-11-15T21:15:26;111.73;;;76.90;;
43793;SDS011;29414;44.798;20.366;2022-11-15T21:19:27;118.90;;;80.63;;
43793;SDS011;29414;44.798;20.366;2022-11-15T21:23:27;100.43;;;72.40;;
43793;SDS011;29414;44.798;20.366;2022-11-15T21:27:27;133.40;;;75.73;;
43793;SDS011;29414;44.798;20.366;2022-11-15T21:31:27;102.47;;;74.60;;
43793;SDS011;29414;44.798;20.366;2022-11-15T21:35:28;133.47;;;75.67;;
43793;SDS011;29414;44.798;20.366;2022-11-15T21:39:28;104.97;;;77.93;;
43793;SDS011;29414;44.798;20.366;2022-11-15T21:43:28;106.87;;;77.50;;
43793;SDS011;29414;44.798;20.366;2022-11-15T21:47:29;121.67;;;80.17;;
43793;SDS011;29414;44.798;20.366;2022-11-15T21:51:29;286.93;;;86.93;;
43793;SDS011;29414;44.798;20.366;2022-11-15T21:55:30;197.10;;;88.93;;
43793;SDS011;29414;44.798;20.366;2022-11-15T21:59:30;470.77;;;106.47;;
43793;SDS011;29414;44.798;20.366;2022-11-15T22:03:31;178.03;;;81.47;;
43793;SDS011;29414;44.798;20.366;2022-11-15T22:07:31;319.50;;;83.07;;
43793;SDS011;29414;44.798;20.366;2022-11-15T22:11:31;146.37;;;74.03;;
43793;SDS011;29414;44.798;20.366;2022-11-15T22:15:32;143.00;;;66.13;;
43793;SDS011;29414;44.798;20.366;2022-11-15T22:19:32;94.87;;;64.00;;
43793;SDS011;29414;44.798;20.366;2022-11-15T22:23:32;146.32;;;67.68;;
43793;SDS011;29414;44.798;20.366;2022-11-15T22:27:32;241.30;;;69.73;;
43793;SDS011;29414;44.798;20.366;2022-11-15T22:31:33;80.22;;;61.67;;
43793;SDS011;29414;44.798;20.366;2022-11-15T22:35:33;127.30;;;64.47;;
43793;SDS011;29414;44.798;20.366;2022-11-15T22:39:34;155.93;;;68.63;;
43793;SDS011;29414;44.798;20.366;2022-11-15T22:43:34;156.03;;;64.47;;
43793;SDS011;29414;44.798;20.366;2022-11-15T22:47:35;95.95;;;65.18;;
43793;SDS011;29414;44.798;20.366;2022-11-15T22:51:35;101.97;;;63.63;;
43793;SDS011;29414;44.798;20.366;2022-11-15T22:55:39;86.30;;;60.77;;
43793;SDS011;29414;44.798;20.366;2022-11-15T22:59:39;138.30;;;62.60;;
43793;SDS011;29414;44.798;20.366;2022-11-15T23:03:40;100.63;;;63.90;;
43793;SDS011;29414;44.798;20.366;2022-11-15T23:07:41;94.82;;;61.78;;
43793;SDS011;29414;44.798;20.366;2022-11-15T23:11:41;94.43;;;62.37;;
43793;SDS011;29414;44.798;20.366;2022-11-15T23:16:04;86.43;;;63.33;;
43793;SDS011;29414;44.798;20.366;2022-11-15T23:20:23;77.57;;;58.00;;
43793;SDS011;29414;44.798;20.366;2022-11-15T23:24:24;75.20;;;56.70;;
43793;SDS011;29414;44.798;20.366;2022-11-15T23:28:24;82.03;;;57.13;;
43793;SDS011;29414;44.798;20.366;2022-11-15T23:32:24;81.77;;;58.27;;
43793;SDS011;29414;44.798;20.366;2022-11-15T23:36:43;111.20;;;60.37;;
43793;SDS011;29414;44.798;20.366;2022-11-15T23:40:49;173.60;;;65.43;;
43793;SDS011;29414;44.798;20.366;2022-11-15T23:44:49;99.50;;;61.08;;
43793;SDS011;29414;44.798;20.366;2022-11-15T23:48:49;86.47;;;61.17;;
43793;SDS011;29414;44.798;20.366;2022-11-15T23:52:50;98.88;;;61.40;;
43793;SDS011;29414;44.798;20.366;2022-11-15T23:56:50;93.60;;;60.30;;
